sensor_id;sensor_type;location;lat;lon;timestamp;temperature;humidity
17152;DHT22;8691;50.828;4.700;2023-12-14T00:01:15;8.80;99.90
17152;DHT22;8691;50.828;4.700;2023-12-14T00:03:42;8.80;99.90
17152;DHT22;8691;50.828;4.700;2023-12-14T00:06:09;8.80;99.90
17152;DHT22;8691;50.828;4.700;2023-12-14T00:08:35;8.80;99.90
17152;DHT22;8691;50.828;4.700;2023-12-14T00:11:09;8.80;99.90
17152;DHT22;8691;50.828;4.700;2023-12-14T00:13:32;8.80;99.90
17152;DHT22;8691;50.828;4.700;2023-12-14T00:15:59;8.80;99.90
17152;DHT22;8691;50.828;4.700;2023-12-14T00:18:26;8.80;99.90
17152;DHT22;8691;50.828;4.700;2023-12-14T00:20:53;8.90;99.90
17152;DHT22;8691;50.828;4.700;2023-12-14T00:23:23;8.90;99.90
17152;DHT22;8691;50.828;4.700;2023-12-14T00:25:50;8.80;99.90
17152;DHT22;8691;50.828;4.700;2023-12-14T00:28:17;8.90;99.90
17152;DHT22;8691;50.828;4.700;2023-12-14T00:30:43;8.80;99.90
17152;DHT22;8691;50.828;4.700;2023-12-14T00:33:10;8.80;99.90
17152;DHT22;8691;50.828;4.700;2023-12-14T00:35:37;8.90;99.90
17152;DHT22;8691;50.828;4.700;2023-12-14T00:38:04;8.90;99.90
17152;DHT22;8691;50.828;4.700;2023-12-14T00:40:31;8.90;99.90
17152;DHT22;8691;50.828;4.700;2023-12-14T00:42:58;8.90;99.90
17152;DHT22;8691;50.828;4.700;2023-12-14T00:45:25;8.90;99.90
17152;DHT22;8691;50.828;4.700;2023-12-14T00:47:52;8.90;99.90
17152;DHT22;8691;50.828;4.700;2023-12-14T00:50:19;8.90;99.90
17152;DHT22;8691;50.828;4.700;2023-12-14T00:52:47;8.90;99.90
17152;DHT22;8691;50.828;4.700;2023-12-14T00:55:13;8.90;99.90
17152;DHT22;8691;50.828;4.700;2023-12-14T00:57:40;8.90;99.90
17152;DHT22;8691;50.828;4.700;2023-12-14T01:00:08;8.90;99.90
17152;DHT22;8691;50.828;4.700;2023-12-14T01:02:34;8.90;99.90
17152;DHT22;8691;50.828;4.700;2023-12-14T01:05:01;8.90;99.90
17152;DHT22;8691;50.828;4.700;2023-12-14T01:07:28;8.90;99.90
17152;DHT22;8691;50.828;4.700;2023-12-14T01:09:55;8.90;99.90
17152;DHT22;8691;50.828;4.700;2023-12-14T01:12:22;8.90;99.90
17152;DHT22;8691;50.828;4.700;2023-12-14T01:14:49;8.90;99.90
17152;DHT22;8691;50.828;4.700;2023-12-14T01:17:16;8.90;99.90
17152;DHT22;8691;50.828;4.700;2023-12-14T01:19:43;8.90;99.90
17152;DHT22;8691;50.828;4.700;2023-12-14T01:22:10;8.90;99.90
17152;DHT22;8691;50.828;4.700;2023-12-14T01:24:37;8.90;99.90
17152;DHT22;8691;50.828;4.700;2023-12-14T01:27:03;8.90;99.90
17152;DHT22;8691;50.828;4.700;2023-12-14T01:29:31;8.90;99.90
17152;DHT22;8691;50.828;4.700;2023-12-14T01:31:57;8.90;99.90
17152;DHT22;8691;50.828;4.700;2023-12-14T01:34:24;8.90;99.90
17152;DHT22;8691;50.828;4.700;2023-12-14T01:36:51;8.90;99.90
17152;DHT22;8691;50.828;4.700;2023-12-14T01:39:18;8.90;99.90
17152;DHT22;8691;50.828;4.700;2023-12-14T01:41:45;8.90;99.90
17152;DHT22;8691;50.828;4.700;2023-12-14T01:44:12;8.90;99.90
17152;DHT22;8691;50.828;4.700;2023-12-14T01:46:38;8.90;99.90
17152;DHT22;8691;50.828;4.700;2023-12-14T01:49:05;8.90;99.90
17152;DHT22;8691;50.828;4.700;2023-12-14T01:51:32;8.90;99.90
17152;DHT22;8691;50.828;4.700;2023-12-14T01:53:59;8.80;99.90
17152;DHT22;8691;50.828;4.700;2023-12-14T01:56:26;8.90;99.90
17152;DHT22;8691;50.828;4.700;2023-12-14T01:58:53;8.80;99.90
17152;DHT22;8691;50.828;4.700;2023-12-14T02:03:50;8.90;99.90
17152;DHT22;8691;50.828;4.700;2023-12-14T02:06:17;8.90;99.90
17152;DHT22;8691;50.828;4.700;2023-12-14T02:08:44;8.80;99.90
17152;DHT22;8691;50.828;4.700;2023-12-14T02:11:11;8.80;99.90
17152;DHT22;8691;50.828;4.700;2023-12-14T02:13:38;8.80;99.90
17152;DHT22;8691;50.828;4.700;2023-12-14T02:16:05;8.70;99.90
17152;DHT22;8691;50.828;4.700;2023-12-14T02:18:33;8.60;99.90
17152;DHT22;8691;50.828;4.700;2023-12-14T02:21:00;8.60;99.90
17152;DHT22;8691;50.828;4.700;2023-12-14T02:23:28;8.60;99.90
17152;DHT22;8691;50.828;4.700;2023-12-14T02:25:55;8.60;99.90
17152;DHT22;8691;50.828;4.700;2023-12-14T02:28:22;8.50;99.90
17152;DHT22;8691;50.828;4.700;2023-12-14T02:30:49;8.40;99.90
17152;DHT22;8691;50.828;4.700;2023-12-14T02:33:16;8.50;99.90
17152;DHT22;8691;50.828;4.700;2023-12-14T02:35:44;8.30;99.90
17152;DHT22;8691;50.828;4.700;2023-12-14T02:38:11;8.20;99.90
17152;DHT22;8691;50.828;4.700;2023-12-14T02:40:39;8.20;99.90
17152;DHT22;8691;50.828;4.700;2023-12-14T02:43:06;8.20;99.90
17152;DHT22;8691;50.828;4.700;2023-12-14T02:45:33;8.20;99.90
17152;DHT22;8691;50.828;4.700;2023-12-14T02:48:00;8.30;99.90
17152;DHT22;8691;50.828;4.700;2023-12-14T02:50:27;8.20;99.90
17152;DHT22;8691;50.828;4.700;2023-12-14T02:52:54;8.30;99.90
17152;DHT22;8691;50.828;4.700;2023-12-14T02:55:21;8.30;99.90
17152;DHT22;8691;50.828;4.700;2023-12-14T02:57:47;8.30;99.90
17152;DHT22;8691;50.828;4.700;2023-12-14T03:00:14;8.10;99.90
17152;DHT22;8691;50.828;4.700;2023-12-14T03:02:41;8.10;99.90
17152;DHT22;8691;50.828;4.700;2023-12-14T03:05:08;8.00;99.90
17152;DHT22;8691;50.828;4.700;2023-12-14T03:07:35;7.90;99.90
17152;DHT22;8691;50.828;4.700;2023-12-14T03:10:02;7.80;99.90
17152;DHT22;8691;50.828;4.700;2023-12-14T03:12:29;7.80;99.90
17152;DHT22;8691;50.828;4.700;2023-12-14T03:14:56;7.90;99.90
17152;DHT22;8691;50.828;4.700;2023-12-14T03:17:22;8.00;99.90
17152;DHT22;8691;50.828;4.700;2023-12-14T03:19:50;7.90;99.90
17152;DHT22;8691;50.828;4.700;2023-12-14T03:22:17;7.80;99.90
17152;DHT22;8691;50.828;4.700;2023-12-14T03:24:45;7.70;99.90
17152;DHT22;8691;50.828;4.700;2023-12-14T03:27:12;7.70;99.90
17152;DHT22;8691;50.828;4.700;2023-12-14T03:29:39;7.70;99.90
17152;DHT22;8691;50.828;4.700;2023-12-14T03:32:06;7.70;99.90
17152;DHT22;8691;50.828;4.700;2023-12-14T03:34:33;7.70;99.90
17152;DHT22;8691;50.828;4.700;2023-12-14T03:37:00;7.70;99.90
17152;DHT22;8691;50.828;4.700;2023-12-14T03:39:26;7.70;99.90
17152;DHT22;8691;50.828;4.700;2023-12-14T03:41:53;7.70;99.90
17152;DHT22;8691;50.828;4.700;2023-12-14T03:44:20;7.60;99.90
17152;DHT22;8691;50.828;4.700;2023-12-14T03:46:47;7.60;99.90
17152;DHT22;8691;50.828;4.700;2023-12-14T03:49:14;7.60;99.90
17152;DHT22;8691;50.828;4.700;2023-12-14T03:51:41;7.50;99.90
17152;DHT22;8691;50.828;4.700;2023-12-14T03:54:08;7.50;99.90
17152;DHT22;8691;50.828;4.700;2023-12-14T03:56:34;7.50;99.90
17152;DHT22;8691;50.828;4.700;2023-12-14T03:59:01;7.50;99.90
17152;DHT22;8691;50.828;4.700;2023-12-14T04:01:28;7.60;99.90
17152;DHT22;8691;50.828;4.700;2023-12-14T04:03:55;7.60;99.90
17152;DHT22;8691;50.828;4.700;2023-12-14T04:06:22;7.60;99.90
17152;DHT22;8691;50.828;4.700;2023-12-14T04:08:49;7.60;99.90
17152;DHT22;8691;50.828;4.700;2023-12-14T04:11:16;7.50;99.90
17152;DHT22;8691;50.828;4.700;2023-12-14T04:13:43;7.60;99.90
17152;DHT22;8691;50.828;4.700;2023-12-14T04:16:09;7.50;99.90
17152;DHT22;8691;50.828;4.700;2023-12-14T04:18:36;7.50;99.90
17152;DHT22;8691;50.828;4.700;2023-12-14T04:21:03;7.50;99.90
17152;DHT22;8691;50.828;4.700;2023-12-14T04:23:30;7.60;99.90
17152;DHT22;8691;50.828;4.700;2023-12-14T04:25:57;7.60;99.90
17152;DHT22;8691;50.828;4.700;2023-12-14T04:28:24;7.50;99.90
17152;DHT22;8691;50.828;4.700;2023-12-14T04:30:51;7.50;99.90
17152;DHT22;8691;50.828;4.700;2023-12-14T04:33:18;7.50;99.90
17152;DHT22;8691;50.828;4.700;2023-12-14T04:35:45;7.40;99.90
17152;DHT22;8691;50.828;4.700;2023-12-14T04:38:12;7.40;99.90
17152;DHT22;8691;50.828;4.700;2023-12-14T04:40:39;7.40;99.90
17152;DHT22;8691;50.828;4.700;2023-12-14T04:43:06;7.30;99.90
17152;DHT22;8691;50.828;4.700;2023-12-14T04:45:33;7.20;99.90
17152;DHT22;8691;50.828;4.700;2023-12-14T04:48:01;7.20;99.90
17152;DHT22;8691;50.828;4.700;2023-12-14T04:50:28;7.10;99.90
17152;DHT22;8691;50.828;4.700;2023-12-14T04:52:56;7.10;99.90
17152;DHT22;8691;50.828;4.700;2023-12-14T04:55:23;7.20;99.90
17152;DHT22;8691;50.828;4.700;2023-12-14T04:57:51;7.30;99.90
17152;DHT22;8691;50.828;4.700;2023-12-14T05:00:18;7.30;99.90
17152;DHT22;8691;50.828;4.700;2023-12-14T05:02:48;7.30;99.90
17152;DHT22;8691;50.828;4.700;2023-12-14T05:05:15;7.00;99.90
17152;DHT22;8691;50.828;4.700;2023-12-14T05:07:42;7.00;99.90
17152;DHT22;8691;50.828;4.700;2023-12-14T05:10:09;7.00;99.90
17152;DHT22;8691;50.828;4.700;2023-12-14T05:12:36;6.90;99.90
17152;DHT22;8691;50.828;4.700;2023-12-14T05:15:04;6.90;99.90
17152;DHT22;8691;50.828;4.700;2023-12-14T05:17:30;6.80;99.90
17152;DHT22;8691;50.828;4.700;2023-12-14T05:19:57;6.80;99.90
17152;DHT22;8691;50.828;4.700;2023-12-14T05:22:24;6.80;99.90
17152;DHT22;8691;50.828;4.700;2023-12-14T05:24:51;6.80;99.90
17152;DHT22;8691;50.828;4.700;2023-12-14T05:27:17;6.80;99.90
17152;DHT22;8691;50.828;4.700;2023-12-14T05:29:44;6.90;99.90
17152;DHT22;8691;50.828;4.700;2023-12-14T05:32:11;6.80;99.90
17152;DHT22;8691;50.828;4.700;2023-12-14T05:34:38;6.80;99.90
17152;DHT22;8691;50.828;4.700;2023-12-14T05:37:05;6.80;99.90
17152;DHT22;8691;50.828;4.700;2023-12-14T05:39:32;6.80;99.90
17152;DHT22;8691;50.828;4.700;2023-12-14T05:41:59;6.70;99.90
17152;DHT22;8691;50.828;4.700;2023-12-14T05:44:26;6.70;99.90
17152;DHT22;8691;50.828;4.700;2023-12-14T05:46:53;6.70;99.90
17152;DHT22;8691;50.828;4.700;2023-12-14T05:49:19;6.70;99.90
17152;DHT22;8691;50.828;4.700;2023-12-14T05:51:46;6.70;99.90
17152;DHT22;8691;50.828;4.700;2023-12-14T05:54:13;6.60;99.90
17152;DHT22;8691;50.828;4.700;2023-12-14T05:56:40;6.70;99.90
17152;DHT22;8691;50.828;4.700;2023-12-14T05:59:07;6.70;99.90
17152;DHT22;8691;50.828;4.700;2023-12-14T06:01:34;6.70;99.90
17152;DHT22;8691;50.828;4.700;2023-12-14T06:04:01;6.70;99.90
17152;DHT22;8691;50.828;4.700;2023-12-14T06:06:28;6.70;99.90
17152;DHT22;8691;50.828;4.700;2023-12-14T06:08:55;6.70;99.90
17152;DHT22;8691;50.828;4.700;2023-12-14T06:11:21;6.70;99.90
17152;DHT22;8691;50.828;4.700;2023-12-14T06:13:48;6.70;99.90
17152;DHT22;8691;50.828;4.700;2023-12-14T06:16:15;6.70;99.90
17152;DHT22;8691;50.828;4.700;2023-12-14T06:18:42;6.60;99.90
17152;DHT22;8691;50.828;4.700;2023-12-14T06:21:10;6.70;99.90
17152;DHT22;8691;50.828;4.700;2023-12-14T06:23:36;6.70;99.90
17152;DHT22;8691;50.828;4.700;2023-12-14T06:26:03;6.70;99.90
17152;DHT22;8691;50.828;4.700;2023-12-14T06:28:30;6.70;99.90
17152;DHT22;8691;50.828;4.700;2023-12-14T06:30:57;6.70;99.90
17152;DHT22;8691;50.828;4.700;2023-12-14T06:33:24;6.70;99.90
17152;DHT22;8691;50.828;4.700;2023-12-14T06:35:50;6.70;99.90
17152;DHT22;8691;50.828;4.700;2023-12-14T06:38:17;6.70;99.90
17152;DHT22;8691;50.828;4.700;2023-12-14T06:40:45;6.70;99.90
17152;DHT22;8691;50.828;4.700;2023-12-14T06:43:13;6.70;99.90
17152;DHT22;8691;50.828;4.700;2023-12-14T06:45:40;6.70;99.90
17152;DHT22;8691;50.828;4.700;2023-12-14T06:48:08;6.70;99.90
17152;DHT22;8691;50.828;4.700;2023-12-14T06:50:35;6.70;99.90
17152;DHT22;8691;50.828;4.700;2023-12-14T06:53:02;6.70;99.90
17152;DHT22;8691;50.828;4.700;2023-12-14T06:55:29;6.70;99.90
17152;DHT22;8691;50.828;4.700;2023-12-14T06:57:56;6.60;99.90
17152;DHT22;8691;50.828;4.700;2023-12-14T07:00:23;6.70;99.90
17152;DHT22;8691;50.828;4.700;2023-12-14T07:02:50;6.70;99.90
17152;DHT22;8691;50.828;4.700;2023-12-14T07:05:17;6.70;99.90
17152;DHT22;8691;50.828;4.700;2023-12-14T07:07:45;6.70;99.90
17152;DHT22;8691;50.828;4.700;2023-12-14T07:10:13;6.60;99.90
17152;DHT22;8691;50.828;4.700;2023-12-14T07:12:40;6.60;99.90
17152;DHT22;8691;50.828;4.700;2023-12-14T07:15:06;6.60;99.90
17152;DHT22;8691;50.828;4.700;2023-12-14T07:17:33;6.70;99.90
17152;DHT22;8691;50.828;4.700;2023-12-14T07:20:00;6.60;99.90
17152;DHT22;8691;50.828;4.700;2023-12-14T07:22:27;6.60;99.90
17152;DHT22;8691;50.828;4.700;2023-12-14T07:24:54;6.60;99.90
17152;DHT22;8691;50.828;4.700;2023-12-14T07:27:21;6.60;99.90
17152;DHT22;8691;50.828;4.700;2023-12-14T07:29:48;6.60;99.90
17152;DHT22;8691;50.828;4.700;2023-12-14T07:32:15;6.70;99.90
17152;DHT22;8691;50.828;4.700;2023-12-14T07:34:41;6.60;99.90
17152;DHT22;8691;50.828;4.700;2023-12-14T07:37:08;6.60;99.90
17152;DHT22;8691;50.828;4.700;2023-12-14T07:39:35;6.60;99.90
17152;DHT22;8691;50.828;4.700;2023-12-14T07:42:02;6.60;99.90
17152;DHT22;8691;50.828;4.700;2023-12-14T07:44:29;6.50;99.90
17152;DHT22;8691;50.828;4.700;2023-12-14T07:46:56;6.40;99.90
17152;DHT22;8691;50.828;4.700;2023-12-14T07:49:23;6.30;99.90
17152;DHT22;8691;50.828;4.700;2023-12-14T07:51:50;6.10;99.90
17152;DHT22;8691;50.828;4.700;2023-12-14T07:54:17;6.00;99.90
17152;DHT22;8691;50.828;4.700;2023-12-14T07:56:43;5.90;99.90
17152;DHT22;8691;50.828;4.700;2023-12-14T07:59:11;5.80;99.90
17152;DHT22;8691;50.828;4.700;2023-12-14T08:01:37;5.70;99.90
17152;DHT22;8691;50.828;4.700;2023-12-14T08:04:04;5.60;99.90
17152;DHT22;8691;50.828;4.700;2023-12-14T08:06:31;5.60;99.90
17152;DHT22;8691;50.828;4.700;2023-12-14T08:08:58;5.60;99.90
17152;DHT22;8691;50.828;4.700;2023-12-14T08:11:26;5.40;99.90
17152;DHT22;8691;50.828;4.700;2023-12-14T08:13:53;5.40;99.90
17152;DHT22;8691;50.828;4.700;2023-12-14T08:16:21;5.50;99.90
17152;DHT22;8691;50.828;4.700;2023-12-14T08:18:49;5.70;99.90
17152;DHT22;8691;50.828;4.700;2023-12-14T08:21:17;5.70;99.90
17152;DHT22;8691;50.828;4.700;2023-12-14T08:23:43;5.90;99.90
17152;DHT22;8691;50.828;4.700;2023-12-14T08:26:09;6.20;99.90
17152;DHT22;8691;50.828;4.700;2023-12-14T08:28:37;6.50;99.90
17152;DHT22;8691;50.828;4.700;2023-12-14T08:31:05;6.50;99.90
17152;DHT22;8691;50.828;4.700;2023-12-14T08:33:32;6.50;99.90
17152;DHT22;8691;50.828;4.700;2023-12-14T08:35:59;6.60;99.90
17152;DHT22;8691;50.828;4.700;2023-12-14T08:38:26;6.60;99.90
17152;DHT22;8691;50.828;4.700;2023-12-14T08:40:53;6.70;99.90
17152;DHT22;8691;50.828;4.700;2023-12-14T08:43:19;6.70;99.90
17152;DHT22;8691;50.828;4.700;2023-12-14T08:45:46;6.80;99.90
17152;DHT22;8691;50.828;4.700;2023-12-14T08:48:13;6.90;99.90
17152;DHT22;8691;50.828;4.700;2023-12-14T08:50:40;6.90;99.90
17152;DHT22;8691;50.828;4.700;2023-12-14T08:53:07;7.00;99.90
17152;DHT22;8691;50.828;4.700;2023-12-14T08:55:34;7.10;99.90
17152;DHT22;8691;50.828;4.700;2023-12-14T08:58:02;7.10;99.90
17152;DHT22;8691;50.828;4.700;2023-12-14T09:00:29;7.20;99.90
17152;DHT22;8691;50.828;4.700;2023-12-14T09:02:56;7.10;99.90
17152;DHT22;8691;50.828;4.700;2023-12-14T09:05:23;7.00;99.90
17152;DHT22;8691;50.828;4.700;2023-12-14T09:07:50;6.80;99.90
17152;DHT22;8691;50.828;4.700;2023-12-14T09:10:16;7.30;99.90
17152;DHT22;8691;50.828;4.700;2023-12-14T09:12:43;7.80;99.90
17152;DHT22;8691;50.828;4.700;2023-12-14T09:15:11;8.70;99.90
17152;DHT22;8691;50.828;4.700;2023-12-14T09:17:38;9.10;99.90
17152;DHT22;8691;50.828;4.700;2023-12-14T09:20:06;9.40;99.90
17152;DHT22;8691;50.828;4.700;2023-12-14T09:22:33;9.40;99.90
17152;DHT22;8691;50.828;4.700;2023-12-14T09:25:00;9.70;99.90
17152;DHT22;8691;50.828;4.700;2023-12-14T09:27:27;10.00;99.90
17152;DHT22;8691;50.828;4.700;2023-12-14T09:29:54;10.30;99.90
17152;DHT22;8691;50.828;4.700;2023-12-14T09:32:21;10.30;99.90
17152;DHT22;8691;50.828;4.700;2023-12-14T09:34:48;10.80;99.90
17152;DHT22;8691;50.828;4.700;2023-12-14T09:37:15;10.80;99.90
17152;DHT22;8691;50.828;4.700;2023-12-14T09:39:42;10.90;99.90
17152;DHT22;8691;50.828;4.700;2023-12-14T09:42:10;10.20;99.90
17152;DHT22;8691;50.828;4.700;2023-12-14T09:44:37;10.20;99.90
17152;DHT22;8691;50.828;4.700;2023-12-14T09:47:04;9.80;99.90
17152;DHT22;8691;50.828;4.700;2023-12-14T09:49:31;9.50;99.90
17152;DHT22;8691;50.828;4.700;2023-12-14T09:51:57;9.40;99.90
17152;DHT22;8691;50.828;4.700;2023-12-14T09:54:27;9.30;99.90
17152;DHT22;8691;50.828;4.700;2023-12-14T09:56:54;9.00;99.90
17152;DHT22;8691;50.828;4.700;2023-12-14T09:59:21;8.70;99.90
17152;DHT22;8691;50.828;4.700;2023-12-14T10:01:48;8.60;99.90
17152;DHT22;8691;50.828;4.700;2023-12-14T10:04:16;8.60;99.90
17152;DHT22;8691;50.828;4.700;2023-12-14T10:06:43;8.70;99.90
17152;DHT22;8691;50.828;4.700;2023-12-14T10:09:09;8.70;99.90
17152;DHT22;8691;50.828;4.700;2023-12-14T10:11:42;8.60;99.90
17152;DHT22;8691;50.828;4.700;2023-12-14T10:14:42;8.70;99.90
17152;DHT22;8691;50.828;4.700;2023-12-14T10:16:41;8.90;99.90
17152;DHT22;8691;50.828;4.700;2023-12-14T10:19:08;9.20;99.90
17152;DHT22;8691;50.828;4.700;2023-12-14T10:21:35;9.50;99.90
17152;DHT22;8691;50.828;4.700;2023-12-14T10:24:02;9.70;99.90
17152;DHT22;8691;50.828;4.700;2023-12-14T10:26:29;9.70;99.90
17152;DHT22;8691;50.828;4.700;2023-12-14T10:28:56;9.70;99.90
17152;DHT22;8691;50.828;4.700;2023-12-14T10:31:22;9.60;99.90
17152;DHT22;8691;50.828;4.700;2023-12-14T10:33:49;9.60;99.90
17152;DHT22;8691;50.828;4.700;2023-12-14T10:36:17;9.50;99.90
17152;DHT22;8691;50.828;4.700;2023-12-14T10:38:44;9.00;99.90
17152;DHT22;8691;50.828;4.700;2023-12-14T10:41:11;9.00;99.90
17152;DHT22;8691;50.828;4.700;2023-12-14T10:43:37;8.90;99.90
17152;DHT22;8691;50.828;4.700;2023-12-14T10:46:05;8.70;99.90
17152;DHT22;8691;50.828;4.700;2023-12-14T10:48:32;8.70;99.90
17152;DHT22;8691;50.828;4.700;2023-12-14T10:50:59;8.70;99.90
17152;DHT22;8691;50.828;4.700;2023-12-14T10:53:26;8.70;99.90
17152;DHT22;8691;50.828;4.700;2023-12-14T10:55:53;8.60;99.90
17152;DHT22;8691;50.828;4.700;2023-12-14T10:58:21;8.60;99.90
17152;DHT22;8691;50.828;4.700;2023-12-14T11:01:00;8.60;99.90
17152;DHT22;8691;50.828;4.700;2023-12-14T11:03:36;8.60;99.90
17152;DHT22;8691;50.828;4.700;2023-12-14T11:06:02;8.60;99.90
17152;DHT22;8691;50.828;4.700;2023-12-14T11:08:29;8.60;99.90
17152;DHT22;8691;50.828;4.700;2023-12-14T11:11:00;8.70;99.90
17152;DHT22;8691;50.828;4.700;2023-12-14T11:13:23;8.70;99.90
17152;DHT22;8691;50.828;4.700;2023-12-14T11:15:50;8.70;99.90
17152;DHT22;8691;50.828;4.700;2023-12-14T11:18:20;8.80;99.90
17152;DHT22;8691;50.828;4.700;2023-12-14T11:20:49;8.70;99.90
17152;DHT22;8691;50.828;4.700;2023-12-14T11:23:17;8.60;99.90
17152;DHT22;8691;50.828;4.700;2023-12-14T11:25:48;8.60;99.90
17152;DHT22;8691;50.828;4.700;2023-12-14T11:28:15;8.70;99.90
17152;DHT22;8691;50.828;4.700;2023-12-14T11:30:45;8.80;99.90
17152;DHT22;8691;50.828;4.700;2023-12-14T11:33:10;8.90;99.90
17152;DHT22;8691;50.828;4.700;2023-12-14T11:35:36;9.00;99.90
17152;DHT22;8691;50.828;4.700;2023-12-14T11:38:03;9.10;99.90
17152;DHT22;8691;50.828;4.700;2023-12-14T11:40:30;9.20;99.90
17152;DHT22;8691;50.828;4.700;2023-12-14T11:43:01;9.40;99.90
17152;DHT22;8691;50.828;4.700;2023-12-14T11:45:27;9.40;99.90
17152;DHT22;8691;50.828;4.700;2023-12-14T11:47:54;9.50;99.90
17152;DHT22;8691;50.828;4.700;2023-12-14T11:50:21;9.40;99.90
17152;DHT22;8691;50.828;4.700;2023-12-14T11:52:48;9.40;99.90
17152;DHT22;8691;50.828;4.700;2023-12-14T11:55:15;9.30;99.90
17152;DHT22;8691;50.828;4.700;2023-12-14T11:57:48;9.20;99.90
17152;DHT22;8691;50.828;4.700;2023-12-14T12:00:17;9.10;99.90
17152;DHT22;8691;50.828;4.700;2023-12-14T12:02:42;9.10;99.90
17152;DHT22;8691;50.828;4.700;2023-12-14T12:05:09;9.10;99.90
17152;DHT22;8691;50.828;4.700;2023-12-14T12:07:36;9.10;99.90
17152;DHT22;8691;50.828;4.700;2023-12-14T12:10:02;9.10;99.90
17152;DHT22;8691;50.828;4.700;2023-12-14T12:12:29;9.00;99.90
17152;DHT22;8691;50.828;4.700;2023-12-14T12:14:56;8.90;99.90
17152;DHT22;8691;50.828;4.700;2023-12-14T12:17:24;8.70;99.90
17152;DHT22;8691;50.828;4.700;2023-12-14T12:19:51;8.70;99.90
17152;DHT22;8691;50.828;4.700;2023-12-14T12:22:17;8.70;99.90
17152;DHT22;8691;50.828;4.700;2023-12-14T12:24:44;8.60;99.90
17152;DHT22;8691;50.828;4.700;2023-12-14T12:27:11;8.60;99.90
17152;DHT22;8691;50.828;4.700;2023-12-14T12:29:38;8.50;99.90
17152;DHT22;8691;50.828;4.700;2023-12-14T12:32:05;8.50;99.90
17152;DHT22;8691;50.828;4.700;2023-12-14T12:34:32;8.40;99.90
17152;DHT22;8691;50.828;4.700;2023-12-14T12:36:58;8.40;99.90
17152;DHT22;8691;50.828;4.700;2023-12-14T12:39:25;8.40;99.90
17152;DHT22;8691;50.828;4.700;2023-12-14T12:41:52;8.40;99.90
17152;DHT22;8691;50.828;4.700;2023-12-14T12:44:19;8.50;99.90
17152;DHT22;8691;50.828;4.700;2023-12-14T12:46:46;8.50;99.90
17152;DHT22;8691;50.828;4.700;2023-12-14T12:49:13;8.40;99.90
17152;DHT22;8691;50.828;4.700;2023-12-14T12:51:40;8.40;99.90
17152;DHT22;8691;50.828;4.700;2023-12-14T12:54:07;8.30;99.90
17152;DHT22;8691;50.828;4.700;2023-12-14T12:56:34;8.20;99.90
17152;DHT22;8691;50.828;4.700;2023-12-14T12:59:01;8.20;99.90
17152;DHT22;8691;50.828;4.700;2023-12-14T13:01:27;8.10;99.90
17152;DHT22;8691;50.828;4.700;2023-12-14T13:03:55;8.10;99.90
17152;DHT22;8691;50.828;4.700;2023-12-14T13:06:21;8.10;99.90
17152;DHT22;8691;50.828;4.700;2023-12-14T13:08:48;8.20;99.90
17152;DHT22;8691;50.828;4.700;2023-12-14T13:11:15;8.20;99.90
17152;DHT22;8691;50.828;4.700;2023-12-14T13:13:42;8.20;99.90
17152;DHT22;8691;50.828;4.700;2023-12-14T13:16:10;8.20;99.90
17152;DHT22;8691;50.828;4.700;2023-12-14T13:18:36;8.10;99.90
17152;DHT22;8691;50.828;4.700;2023-12-14T13:21:03;8.10;99.90
17152;DHT22;8691;50.828;4.700;2023-12-14T13:23:30;8.00;99.90
17152;DHT22;8691;50.828;4.700;2023-12-14T13:25:57;7.90;99.90
17152;DHT22;8691;50.828;4.700;2023-12-14T13:28:25;7.80;99.90
17152;DHT22;8691;50.828;4.700;2023-12-14T13:30:52;7.80;99.90
17152;DHT22;8691;50.828;4.700;2023-12-14T13:33:19;7.80;99.90
17152;DHT22;8691;50.828;4.700;2023-12-14T13:35:46;7.90;99.90
17152;DHT22;8691;50.828;4.700;2023-12-14T13:38:13;7.90;99.90
17152;DHT22;8691;50.828;4.700;2023-12-14T13:40:40;8.00;99.90
17152;DHT22;8691;50.828;4.700;2023-12-14T13:43:07;8.10;99.90
17152;DHT22;8691;50.828;4.700;2023-12-14T13:45:34;8.10;99.90
17152;DHT22;8691;50.828;4.700;2023-12-14T13:48:01;8.10;99.90
17152;DHT22;8691;50.828;4.700;2023-12-14T13:50:28;8.00;99.90
17152;DHT22;8691;50.828;4.700;2023-12-14T13:52:55;7.90;99.90
17152;DHT22;8691;50.828;4.700;2023-12-14T13:55:22;7.90;99.90
17152;DHT22;8691;50.828;4.700;2023-12-14T13:57:49;7.90;99.90
17152;DHT22;8691;50.828;4.700;2023-12-14T14:00:16;7.80;99.90
17152;DHT22;8691;50.828;4.700;2023-12-14T14:02:43;7.80;99.90
17152;DHT22;8691;50.828;4.700;2023-12-14T14:05:10;7.80;99.90
17152;DHT22;8691;50.828;4.700;2023-12-14T14:07:37;7.90;99.90
17152;DHT22;8691;50.828;4.700;2023-12-14T14:10:04;7.80;99.90
17152;DHT22;8691;50.828;4.700;2023-12-14T14:12:31;7.80;99.90
17152;DHT22;8691;50.828;4.700;2023-12-14T14:14:58;7.90;99.90
17152;DHT22;8691;50.828;4.700;2023-12-14T14:17:25;7.80;99.90
17152;DHT22;8691;50.828;4.700;2023-12-14T14:19:51;7.80;99.90
17152;DHT22;8691;50.828;4.700;2023-12-14T14:22:18;7.80;99.90
17152;DHT22;8691;50.828;4.700;2023-12-14T14:24:45;7.80;99.90
17152;DHT22;8691;50.828;4.700;2023-12-14T14:27:12;7.80;99.90
17152;DHT22;8691;50.828;4.700;2023-12-14T14:29:39;7.80;99.90
17152;DHT22;8691;50.828;4.700;2023-12-14T14:32:06;7.70;99.90
17152;DHT22;8691;50.828;4.700;2023-12-14T14:34:33;7.70;99.90
17152;DHT22;8691;50.828;4.700;2023-12-14T14:37:00;7.70;99.90
17152;DHT22;8691;50.828;4.700;2023-12-14T14:39:27;7.70;99.90
17152;DHT22;8691;50.828;4.700;2023-12-14T14:41:53;7.70;99.90
17152;DHT22;8691;50.828;4.700;2023-12-14T14:44:20;7.70;99.90
17152;DHT22;8691;50.828;4.700;2023-12-14T14:46:47;7.70;99.90
17152;DHT22;8691;50.828;4.700;2023-12-14T14:49:14;7.60;99.90
17152;DHT22;8691;50.828;4.700;2023-12-14T14:51:41;7.60;99.90
17152;DHT22;8691;50.828;4.700;2023-12-14T14:54:08;7.60;99.90
17152;DHT22;8691;50.828;4.700;2023-12-14T14:56:34;7.60;99.90
17152;DHT22;8691;50.828;4.700;2023-12-14T14:59:01;7.50;99.90
17152;DHT22;8691;50.828;4.700;2023-12-14T15:01:29;7.50;99.90
17152;DHT22;8691;50.828;4.700;2023-12-14T15:03:56;7.50;99.90
17152;DHT22;8691;50.828;4.700;2023-12-14T15:06:23;7.50;99.90
17152;DHT22;8691;50.828;4.700;2023-12-14T15:08:50;7.50;99.90
17152;DHT22;8691;50.828;4.700;2023-12-14T15:11:17;7.50;99.90
17152;DHT22;8691;50.828;4.700;2023-12-14T15:13:45;7.40;99.90
17152;DHT22;8691;50.828;4.700;2023-12-14T15:16:12;7.40;99.90
17152;DHT22;8691;50.828;4.700;2023-12-14T15:18:39;7.40;99.90
17152;DHT22;8691;50.828;4.700;2023-12-14T15:21:09;7.40;99.90
17152;DHT22;8691;50.828;4.700;2023-12-14T15:23:37;7.40;99.90
17152;DHT22;8691;50.828;4.700;2023-12-14T15:26:04;7.40;99.90
17152;DHT22;8691;50.828;4.700;2023-12-14T15:28:30;7.40;99.90
17152;DHT22;8691;50.828;4.700;2023-12-14T15:30:57;7.40;99.90
17152;DHT22;8691;50.828;4.700;2023-12-14T15:33:24;7.40;99.90
17152;DHT22;8691;50.828;4.700;2023-12-14T15:35:51;7.40;99.90
17152;DHT22;8691;50.828;4.700;2023-12-14T15:38:18;7.40;99.90
17152;DHT22;8691;50.828;4.700;2023-12-14T15:40:45;7.40;99.90
17152;DHT22;8691;50.828;4.700;2023-12-14T15:43:12;7.40;99.90
17152;DHT22;8691;50.828;4.700;2023-12-14T15:45:39;7.40;99.90
17152;DHT22;8691;50.828;4.700;2023-12-14T15:48:05;7.40;99.90
17152;DHT22;8691;50.828;4.700;2023-12-14T15:50:33;7.40;99.90
17152;DHT22;8691;50.828;4.700;2023-12-14T15:53:00;7.40;99.90
17152;DHT22;8691;50.828;4.700;2023-12-14T15:55:27;7.40;99.90
17152;DHT22;8691;50.828;4.700;2023-12-14T15:57:54;7.30;99.90
17152;DHT22;8691;50.828;4.700;2023-12-14T16:00:20;7.30;99.90
17152;DHT22;8691;50.828;4.700;2023-12-14T16:02:47;7.10;99.90